Time;durP1;ratioP1;P1;durP2;ratioP2;P2;SDS_P1;SDS_P2;PMS_P1;PMS_P2;Temp;Humidity;BMP_temperature;BMP_pressure;BME280_temperature;BME280_humidity;BME280_pressure;Samples;Min_cycle;Max_cycle;Signal;HPM_P1;HPM_P2
2021/01/07 00:01:08;;;;;;;;;;;;;;;4.92;62.93;100113.84;4992513;28;19929;-79
2021/01/07 00:03:40;;;;;;;;;;;;;;;5.16;62.78;100116.94;4986926;28;19932;-77
2021/01/07 00:06:10;;;;;;;;;;;;;;;5.51;61.78;100118.56;5015774;28;20399;-78
2021/01/07 00:08:37;;;;;;;;;;;;;;;5.76;60.69;100116.38;4998410;28;19936;-76
2021/01/07 00:11:05;;;;;;;;;;;;;;;4.82;62.94;100112.75;5004597;28;19980;-78
2021/01/07 00:13:31;;;;;;;;;;;;;;;5.64;61.13;100117.94;4988454;28;19925;-78
2021/01/07 00:15:59;;;;;;;;;;;;;;;5.74;60.49;100121.56;4975931;28;19928;-79
2021/01/07 00:18:29;;;;;;;;;;;;;;;5.75;60.92;100112.97;4994751;28;20013;-78
2021/01/07 00:21:02;;;;;;;;;;;;;;;5.63;60.97;100111.00;4983775;28;19929;-79
2021/01/07 00:23:43;;;;;;;;;;;;;;;5.88;60.62;100104.56;4981865;28;19936;-78
2021/01/07 00:26:09;;;;;;;;;;;;;;;5.34;62.14;100100.91;5010578;28;19921;-79
2021/01/07 00:28:36;;;;;;;;;;;;;;;5.96;60.25;100102.09;5000552;28;20343;-78
2021/01/07 00:31:05;;;;;;;;;;;;;;;5.43;61.26;100101.06;5013202;28;19961;-78
2021/01/07 00:33:31;;;;;;;;;;;;;;;5.06;62.63;100091.69;4982030;28;19988;-79
2021/01/07 00:35:58;;;;;;;;;;;;;;;5.29;62.09;100090.44;5012257;28;19928;-77
2021/01/07 00:38:24;;;;;;;;;;;;;;;5.30;62.46;100087.03;4985024;28;19921;-79
2021/01/07 00:40:51;;;;;;;;;;;;;;;5.84;60.33;100087.19;5010747;28;20415;-79
2021/01/07 00:43:17;;;;;;;;;;;;;;;6.05;59.62;100087.56;5011267;28;19982;-79
2021/01/07 00:45:43;;;;;;;;;;;;;;;5.96;59.89;100078.78;5010371;28;20335;-78
2021/01/07 00:48:10;;;;;;;;;;;;;;;6.20;59.17;100080.91;5010863;28;20023;-78
2021/01/07 00:50:36;;;;;;;;;;;;;;;5.79;60.40;100078.47;5008962;28;20040;-79
2021/01/07 00:53:03;;;;;;;;;;;;;;;5.69;60.43;100066.19;4997404;28;19960;-78
2021/01/07 00:55:30;;;;;;;;;;;;;;;5.49;61.14;100062.34;4997126;28;19995;-77
2021/01/07 00:57:56;;;;;;;;;;;;;;;5.27;61.55;100068.84;5016601;28;19951;-78
2021/01/07 01:00:23;;;;;;;;;;;;;;;5.85;59.82;100063.00;4980781;28;19925;-78
2021/01/07 01:02:50;;;;;;;;;;;;;;;5.80;59.65;100062.06;4997647;28;19952;-79
2021/01/07 01:05:17;;;;;;;;;;;;;;;5.72;59.65;100061.03;4996941;28;19929;-78
2021/01/07 01:07:44;;;;;;;;;;;;;;;5.66;59.77;100056.59;4991655;28;19939;-78
2021/01/07 01:10:11;;;;;;;;;;;;;;;5.50;59.93;100051.13;4997778;28;19925;-77
2021/01/07 01:12:38;;;;;;;;;;;;;;;5.70;59.07;100057.56;4949466;28;19968;-78
2021/01/07 01:15:09;;;;;;;;;;;;;;;5.88;58.33;100051.84;4978983;28;20280;-76
2021/01/07 01:17:36;;;;;;;;;;;;;;;5.74;58.56;100049.00;4966403;28;19930;-79
2021/01/07 01:20:04;;;;;;;;;;;;;;;5.66;58.33;100045.38;4983689;28;19961;-79
2021/01/07 01:22:32;;;;;;;;;;;;;;;5.12;59.96;100035.75;4983835;28;19937;-78
2021/01/07 01:25:00;;;;;;;;;;;;;;;4.73;61.23;100032.34;4963318;28;20136;-76
2021/01/07 01:27:27;;;;;;;;;;;;;;;4.16;62.37;100024.16;4988911;28;19922;-78
2021/01/07 01:29:54;;;;;;;;;;;;;;;4.09;62.69;100020.53;4978000;28;19926;-77
2021/01/07 01:32:20;;;;;;;;;;;;;;;4.04;63.01;100021.25;4978287;28;19932;-77
2021/01/07 01:34:47;;;;;;;;;;;;;;;3.93;63.26;100027.03;4986833;28;19937;-78
2021/01/07 01:37:13;;;;;;;;;;;;;;;3.99;62.77;100021.16;4989458;28;19984;-79
2021/01/07 01:39:45;;;;;;;;;;;;;;;4.36;61.72;100023.75;4974197;28;20424;-78
2021/01/07 01:42:13;;;;;;;;;;;;;;;4.21;61.82;100019.97;4962493;28;19925;-77
2021/01/07 01:44:39;;;;;;;;;;;;;;;4.08;61.47;100017.91;5000107;28;19929;-77
2021/01/07 01:47:09;;;;;;;;;;;;;;;4.08;61.89;100010.16;5018153;28;19921;-78
2021/01/07 01:49:35;;;;;;;;;;;;;;;4.36;60.57;100013.41;5010231;28;19972;-78
2021/01/07 01:52:02;;;;;;;;;;;;;;;4.30;61.06;100009.81;5012764;28;20380;-78
2021/01/07 01:54:31;;;;;;;;;;;;;;;4.22;61.27;100013.97;5010886;28;20303;-78
2021/01/07 01:57:01;;;;;;;;;;;;;;;3.79;62.27;100006.91;4997341;28;20336;-78
2021/01/07 01:59:30;;;;;;;;;;;;;;;3.82;61.99;100015.59;5013857;28;20012;-78
2021/01/07 02:02:10;;;;;;;;;;;;;;;3.71;62.38;100016.16;4996212;28;20296;-79
2021/01/07 02:04:36;;;;;;;;;;;;;;;4.11;60.83;100018.88;5009873;28;19928;-78
2021/01/07 02:07:04;;;;;;;;;;;;;;;3.62;62.52;100013.34;5011284;28;19933;-78
2021/01/07 02:09:30;;;;;;;;;;;;;;;3.84;62.01;100021.66;5018680;28;19925;-77
2021/01/07 02:11:58;;;;;;;;;;;;;;;3.94;61.59;100015.88;5030851;28;19944;-78
2021/01/07 02:14:26;;;;;;;;;;;;;;;3.81;61.14;100019.00;5008875;28;19995;-78
2021/01/07 02:16:56;;;;;;;;;;;;;;;4.05;61.16;100020.44;5014041;28;19920;-79
2021/01/07 02:19:22;;;;;;;;;;;;;;;3.86;61.44;100022.59;5010542;28;19939;-80
2021/01/07 02:21:49;;;;;;;;;;;;;;;3.57;62.29;100020.97;4994529;28;20360;-77
2021/01/07 02:24:18;;;;;;;;;;;;;;;3.71;61.36;100031.66;5005313;28;20018;-78
2021/01/07 02:26:45;;;;;;;;;;;;;;;4.02;60.32;100030.72;4994074;28;19991;-79
2021/01/07 02:29:22;;;;;;;;;;;;;;;3.94;60.67;100026.22;5017419;28;19929;-80
2021/01/07 02:31:50;;;;;;;;;;;;;;;3.77;61.15;100021.47;5012202;28;20000;-78
2021/01/07 02:34:17;;;;;;;;;;;;;;;4.12;59.68;100023.22;5001607;28;19997;-77
2021/01/07 02:36:44;;;;;;;;;;;;;;;3.78;61.15;100028.41;5010041;28;19990;-77
2021/01/07 02:39:13;;;;;;;;;;;;;;;3.97;60.40;100029.72;5010835;28;19929;-79
2021/01/07 02:41:39;;;;;;;;;;;;;;;3.85;60.92;100019.94;5014856;28;19947;-77
2021/01/07 02:44:08;;;;;;;;;;;;;;;3.80;60.90;100021.53;5032587;28;20020;-78
2021/01/07 02:46:34;;;;;;;;;;;;;;;3.59;61.60;100028.78;5017512;28;20011;-78
2021/01/07 02:49:01;;;;;;;;;;;;;;;3.41;62.09;100021.41;5013757;28;19921;-79
2021/01/07 02:51:27;;;;;;;;;;;;;;;3.59;61.93;100015.84;5031998;28;20009;-78
2021/01/07 02:53:53;;;;;;;;;;;;;;;3.67;61.49;100017.78;5027344;28;19994;-77
2021/01/07 02:56:20;;;;;;;;;;;;;;;3.21;62.38;100015.72;5019164;28;20011;-77
2021/01/07 02:58:47;;;;;;;;;;;;;;;3.32;62.81;100011.72;5035709;28;20018;-77
2021/01/07 03:01:14;;;;;;;;;;;;;;;3.44;62.67;100008.59;5032446;28;19956;-77
2021/01/07 03:03:40;;;;;;;;;;;;;;;3.32;62.76;100005.66;5015962;28;20350;-78
2021/01/07 03:06:06;;;;;;;;;;;;;;;3.02;63.37;100004.00;5003461;28;19928;-77
2021/01/07 03:08:33;;;;;;;;;;;;;;;3.23;63.32;100006.31;5022480;28;19927;-77
2021/01/07 03:10:59;;;;;;;;;;;;;;;3.18;63.71;100000.16;5017146;28;19952;-77
2021/01/07 03:13:25;;;;;;;;;;;;;;;2.86;64.56;99996.69;5030508;28;19929;-78
2021/01/07 03:15:52;;;;;;;;;;;;;;;3.22;62.74;99999.38;5015530;28;20011;-78
2021/01/07 03:18:19;;;;;;;;;;;;;;;3.44;62.23;99993.97;4999830;28;20012;-78
2021/01/07 03:20:46;;;;;;;;;;;;;;;3.36;62.68;99992.88;5024997;28;20358;-78
2021/01/07 03:23:12;;;;;;;;;;;;;;;3.59;61.94;99992.59;4999859;28;19925;-78
2021/01/07 03:25:38;;;;;;;;;;;;;;;3.39;62.02;99984.34;5000046;28;19925;-78
2021/01/07 03:28:05;;;;;;;;;;;;;;;3.21;62.53;99989.91;5017778;28;19940;-78
2021/01/07 03:30:32;;;;;;;;;;;;;;;3.30;62.01;99989.28;5009409;28;19927;-78
2021/01/07 03:32:58;;;;;;;;;;;;;;;3.24;62.76;99994.28;5006221;28;19924;-78
2021/01/07 03:35:25;;;;;;;;;;;;;;;3.32;62.55;99988.47;5015188;28;20521;-78
2021/01/07 03:37:51;;;;;;;;;;;;;;;3.21;63.07;99987.34;5032573;28;20559;-78
2021/01/07 03:40:18;;;;;;;;;;;;;;;2.74;64.14;99988.59;5038576;28;20418;-78
2021/01/07 03:42:44;;;;;;;;;;;;;;;3.51;61.91;99984.66;5023606;28;20287;-78
2021/01/07 03:45:11;;;;;;;;;;;;;;;2.86;63.78;99983.78;5005630;28;19948;-79
2021/01/07 03:47:38;;;;;;;;;;;;;;;3.46;62.10;99979.38;5031795;28;20394;-79
2021/01/07 03:50:05;;;;;;;;;;;;;;;3.38;62.30;99972.25;5024335;28;19925;-78
2021/01/07 03:52:31;;;;;;;;;;;;;;;2.96;63.18;99969.44;5030604;28;19943;-79
2021/01/07 03:54:57;;;;;;;;;;;;;;;3.08;62.83;99968.06;5003247;28;19950;-77
2021/01/07 03:57:24;;;;;;;;;;;;;;;3.51;61.78;99969.16;5014520;28;20036;-78
2021/01/07 03:59:50;;;;;;;;;;;;;;;3.37;62.04;99968.81;5008166;28;19924;-78
2021/01/07 04:02:16;;;;;;;;;;;;;;;3.21;62.94;99963.22;5018517;28;19933;-78
2021/01/07 04:04:43;;;;;;;;;;;;;;;3.25;62.56;99967.63;5015945;28;19971;-78
2021/01/07 04:07:09;;;;;;;;;;;;;;;3.50;61.41;99959.69;5002384;28;19928;-78
2021/01/07 04:09:35;;;;;;;;;;;;;;;3.13;63.19;99960.44;5018526;28;19928;-78
2021/01/07 04:12:02;;;;;;;;;;;;;;;2.94;63.24;99960.78;5018134;28;19971;-79
2021/01/07 04:14:28;;;;;;;;;;;;;;;2.98;63.41;99963.47;5015023;28;19943;-78
2021/01/07 04:16:55;;;;;;;;;;;;;;;3.16;62.64;99959.66;5022889;28;19920;-78
2021/01/07 04:19:21;;;;;;;;;;;;;;;2.67;64.42;99965.19;5009743;28;20287;-78
2021/01/07 04:21:47;;;;;;;;;;;;;;;2.86;63.89;99968.31;5022886;28;19986;-78
2021/01/07 04:24:14;;;;;;;;;;;;;;;3.49;62.13;99958.81;5021169;28;19929;-78
2021/01/07 04:26:42;;;;;;;;;;;;;;;3.15;62.81;99963.94;5001388;28;19979;-78
2021/01/07 04:29:09;;;;;;;;;;;;;;;2.65;64.11;99962.53;5013740;28;19943;-78
2021/01/07 04:31:35;;;;;;;;;;;;;;;2.98;63.19;99960.88;5019139;28;19925;-78
2021/01/07 04:34:02;;;;;;;;;;;;;;;3.08;62.70;99959.44;5032494;28;19975;-78
2021/01/07 04:36:28;;;;;;;;;;;;;;;3.02;63.39;99964.44;5013854;28;19929;-79
2021/01/07 04:38:55;;;;;;;;;;;;;;;3.19;62.81;99967.47;5028429;28;19928;-79
2021/01/07 04:41:22;;;;;;;;;;;;;;;2.82;63.53;99966.47;5020722;28;19920;-79
2021/01/07 04:43:58;;;;;;;;;;;;;;;3.40;62.61;99970.63;5018402;28;19967;-78
2021/01/07 04:46:25;;;;;;;;;;;;;;;2.77;64.77;99962.03;5032256;28;20336;-78
2021/01/07 04:48:52;;;;;;;;;;;;;;;3.23;63.29;99961.53;5018029;28;19921;-78
2021/01/07 04:51:19;;;;;;;;;;;;;;;2.81;64.36;99958.69;5012195;28;20237;-79
2021/01/07 04:53:47;;;;;;;;;;;;;;;3.31;62.97;99962.63;5007932;28;20015;-78
2021/01/07 04:56:14;;;;;;;;;;;;;;;3.17;62.66;99959.66;5003599;28;20015;-79
2021/01/07 04:58:40;;;;;;;;;;;;;;;2.72;64.18;99956.75;5012193;28;20360;-79
2021/01/07 05:01:07;;;;;;;;;;;;;;;3.07;63.63;99962.84;5035560;28;19943;-79
2021/01/07 05:03:34;;;;;;;;;;;;;;;3.18;63.02;99957.97;5017309;28;20013;-78
2021/01/07 05:06:00;;;;;;;;;;;;;;;2.84;63.81;99948.44;5017504;28;19932;-79
2021/01/07 05:08:28;;;;;;;;;;;;;;;2.82;64.11;99948.44;5013143;28;19922;-78
2021/01/07 05:10:56;;;;;;;;;;;;;;;2.82;64.69;99944.97;5017608;28;19929;-78
2021/01/07 05:13:23;;;;;;;;;;;;;;;3.12;63.80;99944.91;5006014;28;19928;-79
2021/01/07 05:15:50;;;;;;;;;;;;;;;3.06;63.85;99943.94;4997633;28;20226;-78
2021/01/07 05:18:16;;;;;;;;;;;;;;;2.83;64.85;99944.16;5012916;28;19929;-79
2021/01/07 05:20:43;;;;;;;;;;;;;;;3.10;63.24;99954.31;5012735;28;19929;-79
2021/01/07 05:23:11;;;;;;;;;;;;;;;3.21;63.64;99947.75;5010314;28;19955;-79
2021/01/07 05:25:38;;;;;;;;;;;;;;;3.41;62.89;99946.50;5010298;28;19967;-78
2021/01/07 05:28:05;;;;;;;;;;;;;;;2.97;63.41;99941.06;5014595;28;19928;-78
2021/01/07 05:30:33;;;;;;;;;;;;;;;3.62;62.10;99946.19;5008520;28;19944;-78
2021/01/07 05:33:01;;;;;;;;;;;;;;;3.61;61.59;99940.13;5014586;28;19925;-78
2021/01/07 05:35:28;;;;;;;;;;;;;;;3.76;61.57;99937.03;4998397;28;20376;-78
2021/01/07 05:37:56;;;;;;;;;;;;;;;3.21;63.00;99938.28;4982558;28;19922;-78
2021/01/07 05:40:24;;;;;;;;;;;;;;;3.24;62.39;99935.78;4989195;28;19943;-79
2021/01/07 05:42:54;;;;;;;;;;;;;;;3.32;62.90;99935.94;5015342;28;19951;-78
2021/01/07 05:45:21;;;;;;;;;;;;;;;3.21;63.55;99933.13;5005552;28;19921;-79
2021/01/07 05:47:49;;;;;;;;;;;;;;;3.07;64.08;99926.69;5005311;28;19922;-78
2021/01/07 05:50:18;;;;;;;;;;;;;;;2.80;64.94;99920.81;5009051;28;19925;-78
2021/01/07 05:52:45;;;;;;;;;;;;;;;2.71;65.23;99926.59;4998759;28;19922;-78
2021/01/07 05:55:13;;;;;;;;;;;;;;;2.85;65.02;99926.97;5012424;28;19987;-78
2021/01/07 05:57:43;;;;;;;;;;;;;;;2.65;65.76;99923.84;5011438;28;19925;-77
2021/01/07 06:00:14;;;;;;;;;;;;;;;2.69;65.66;99929.97;5008999;28;19930;-77
2021/01/07 06:02:41;;;;;;;;;;;;;;;2.46;66.19;99922.47;5011395;28;19959;-77
2021/01/07 06:05:09;;;;;;;;;;;;;;;2.39;67.02;99920.56;5011477;28;19921;-78
2021/01/07 06:07:36;;;;;;;;;;;;;;;2.53;66.15;99916.66;5011225;28;20351;-77
2021/01/07 06:10:05;;;;;;;;;;;;;;;2.58;66.42;99915.09;5014396;28;19939;-77
2021/01/07 06:12:31;;;;;;;;;;;;;;;2.24;66.99;99919.25;4995319;28;19935;-78
2021/01/07 06:14:59;;;;;;;;;;;;;;;2.92;65.14;99916.00;5014345;28;19988;-79
2021/01/07 06:17:25;;;;;;;;;;;;;;;2.75;65.61;99906.91;5014243;28;19925;-79
2021/01/07 06:19:53;;;;;;;;;;;;;;;2.39;67.13;99899.06;5038387;28;19956;-80
2021/01/07 06:22:20;;;;;;;;;;;;;;;2.52;66.83;99896.88;5031861;28;19948;-78
2021/01/07 06:24:50;;;;;;;;;;;;;;;2.58;67.24;99899.63;5023096;28;19932;-80
2021/01/07 06:27:18;;;;;;;;;;;;;;;2.48;66.74;99897.63;5009468;28;19921;-79
2021/01/07 06:29:44;;;;;;;;;;;;;;;2.59;66.97;99898.75;5039453;28;19981;-78
2021/01/07 06:32:11;;;;;;;;;;;;;;;2.75;66.64;99892.31;5032637;28;19921;-79
2021/01/07 06:34:39;;;;;;;;;;;;;;;2.82;66.01;99898.53;4999862;28;19948;-79
2021/01/07 06:37:06;;;;;;;;;;;;;;;2.70;66.42;99895.59;5018580;28;19924;-78
2021/01/07 06:39:45;;;;;;;;;;;;;;;3.27;64.80;99898.81;5012637;28;19944;-79
2021/01/07 06:42:20;;;;;;;;;;;;;;;2.84;65.80;99897.72;5033572;28;19931;-78
2021/01/07 06:44:46;;;;;;;;;;;;;;;2.87;66.27;99902.97;5032402;28;20577;-78
2021/01/07 06:47:17;;;;;;;;;;;;;;;2.97;65.47;99899.78;5018556;28;19940;-78
2021/01/07 06:49:43;;;;;;;;;;;;;;;2.64;66.47;99904.03;5010123;28;19927;-78
2021/01/07 06:52:13;;;;;;;;;;;;;;;2.91;65.50;99904.81;5039982;28;20024;-78
2021/01/07 06:54:44;;;;;;;;;;;;;;;2.81;65.32;99907.09;5029830;28;19928;-78
2021/01/07 06:57:17;;;;;;;;;;;;;;;2.88;65.71;99903.81;5011328;28;19933;-79
2021/01/07 07:00:00;;;;;;;;;;;;;;;3.31;64.26;99911.00;4999434;28;19976;-78
2021/01/07 07:02:27;;;;;;;;;;;;;;;3.08;64.66;99900.06;5028578;28;19925;-79
2021/01/07 07:05:02;;;;;;;;;;;;;;;2.99;64.62;99908.44;5023618;28;19925;-79
2021/01/07 07:07:28;;;;;;;;;;;;;;;2.95;64.59;99913.50;5029633;28;19961;-79
2021/01/07 07:10:11;;;;;;;;;;;;;;;3.15;64.77;99916.59;5037109;28;19921;-78
2021/01/07 07:12:40;;;;;;;;;;;;;;;3.29;63.79;99916.09;5015472;28;19933;-77
2021/01/07 07:15:12;;;;;;;;;;;;;;;3.32;63.31;99912.72;5022053;28;20043;-78
2021/01/07 07:17:48;;;;;;;;;;;;;;;2.69;65.18;99917.94;5020790;28;20008;-78
2021/01/07 07:20:21;;;;;;;;;;;;;;;3.43;63.58;99914.75;5013557;28;19971;-80
2021/01/07 07:22:52;;;;;;;;;;;;;;;3.45;62.91;99920.78;5000903;28;20051;-78
2021/01/07 07:25:22;;;;;;;;;;;;;;;3.14;63.32;99930.31;5015508;28;20020;-79
2021/01/07 07:27:50;;;;;;;;;;;;;;;3.76;61.75;99929.28;5021421;28;20000;-78
2021/01/07 07:30:28;;;;;;;;;;;;;;;3.34;62.66;99929.13;4995532;28;19924;-77
2021/01/07 07:32:55;;;;;;;;;;;;;;;3.30;63.07;99922.16;5023846;28;19921;-77
2021/01/07 07:35:27;;;;;;;;;;;;;;;2.33;66.21;99925.53;5016023;28;19925;-78
2021/01/07 07:37:53;;;;;;;;;;;;;;;2.76;65.91;99924.16;5001715;28;20011;-78
2021/01/07 07:40:40;;;;;;;;;;;;;;;2.83;65.43;99926.09;5016005;28;19933;-78
2021/01/07 07:43:07;;;;;;;;;;;;;;;2.93;65.30;99928.03;5017823;28;20151;-77
2021/01/07 07:45:35;;;;;;;;;;;;;;;3.00;64.87;99927.41;5014398;28;23725;-77
2021/01/07 07:48:02;;;;;;;;;;;;;;;2.53;66.65;99932.13;5032694;28;19921;-77
2021/01/07 07:50:30;;;;;;;;;;;;;;;2.99;65.55;99931.69;5021738;28;19929;-78
2021/01/07 07:53:06;;;;;;;;;;;;;;;2.81;66.73;99941.50;5030538;28;19936;-78
2021/01/07 07:55:34;;;;;;;;;;;;;;;2.94;66.59;99934.97;5043174;28;20007;-81
2021/01/07 07:58:07;;;;;;;;;;;;;;;2.96;66.24;99941.06;5031973;28;19929;-80
2021/01/07 08:00:34;;;;;;;;;;;;;;;2.57;67.18;99944.28;5028625;28;20006;-80
2021/01/07 08:03:00;;;;;;;;;;;;;;;2.86;66.66;99939.94;4996516;28;20427;-79
2021/01/07 08:05:27;;;;;;;;;;;;;;;2.67;66.68;99948.00;5015391;28;19929;-79
2021/01/07 08:07:54;;;;;;;;;;;;;;;2.85;65.76;99945.91;5019769;28;20024;-81
2021/01/07 08:10:21;;;;;;;;;;;;;;;2.88;65.88;99942.53;5011464;28;19925;-76
2021/01/07 08:12:53;;;;;;;;;;;;;;;2.18;68.30;99949.16;5014467;28;19925;-77
2021/01/07 08:15:26;;;;;;;;;;;;;;;2.57;68.10;99949.44;5018793;28;20588;-76
2021/01/07 08:17:53;;;;;;;;;;;;;;;2.37;68.29;99950.56;4998726;28;19921;-77
2021/01/07 08:20:25;;;;;;;;;;;;;;;2.48;67.82;99945.72;5010571;28;19920;-76
2021/01/07 08:22:55;;;;;;;;;;;;;;;2.95;66.45;99960.81;5030562;28;19921;-76
2021/01/07 08:25:25;;;;;;;;;;;;;;;2.96;66.83;99961.69;5014437;28;20340;-77
2021/01/07 08:28:09;;;;;;;;;;;;;;;2.67;67.25;99955.75;5013467;28;19943;-77
2021/01/07 08:30:39;;;;;;;;;;;;;;;2.36;68.61;99965.97;5013145;28;19925;-77
2021/01/07 08:33:08;;;;;;;;;;;;;;;2.76;67.46;99953.41;5017102;28;20273;-77
2021/01/07 08:35:36;;;;;;;;;;;;;;;2.52;67.87;99955.28;5018248;28;19932;-76
2021/01/07 08:38:02;;;;;;;;;;;;;;;2.71;67.27;99954.97;5021449;28;20343;-76
2021/01/07 08:40:29;;;;;;;;;;;;;;;3.28;65.95;99958.25;5006725;28;20031;-76
2021/01/07 08:42:55;;;;;;;;;;;;;;;2.81;66.02;99956.13;5001921;28;19979;-76
2021/01/07 08:45:27;;;;;;;;;;;;;;;2.83;66.44;99955.31;4996874;28;19921;-77
2021/01/07 08:48:07;;;;;;;;;;;;;;;3.20;65.08;99952.03;5032055;28;20012;-77
2021/01/07 08:50:34;;;;;;;;;;;;;;;3.41;64.62;99954.25;5031058;28;19977;-77
2021/01/07 08:53:06;;;;;;;;;;;;;;;3.23;65.40;99959.84;5034464;28;19920;-77
2021/01/07 08:55:51;;;;;;;;;;;;;;;3.11;64.96;99961.22;5027617;28;20296;-77
2021/01/07 08:58:25;;;;;;;;;;;;;;;3.60;64.01;99959.03;5022543;28;19928;-77
2021/01/07 09:00:55;;;;;;;;;;;;;;;3.26;65.21;99959.06;5013503;28;19921;-77
2021/01/07 09:03:21;;;;;;;;;;;;;;;3.18;65.72;99948.50;5007475;28;19924;-77
2021/01/07 09:05:48;;;;;;;;;;;;;;;3.53;64.29;99952.00;5010178;28;19921;-76
2021/01/07 09:08:15;;;;;;;;;;;;;;;3.38;64.92;99954.19;5004834;28;19921;-80
2021/01/07 09:10:42;;;;;;;;;;;;;;;3.61;64.09;99953.03;5005332;28;20424;-77
2021/01/07 09:13:22;;;;;;;;;;;;;;;3.60;64.13;99940.97;5000229;28;19929;-75
2021/01/07 09:15:49;;;;;;;;;;;;;;;3.98;63.51;99947.03;5000396;28;19921;-76
2021/01/07 09:18:18;;;;;;;;;;;;;;;3.66;64.19;99943.69;4996540;28;19928;-77
2021/01/07 09:20:45;;;;;;;;;;;;;;;3.91;63.99;99948.63;4982222;28;20395;-78
2021/01/07 09:23:16;;;;;;;;;;;;;;;4.72;62.31;99946.06;5002596;28;20293;-76
2021/01/07 09:25:43;;;;;;;;;;;;;;;6.49;56.78;99940.34;4998233;28;19922;-78
2021/01/07 09:28:11;;;;;;;;;;;;;;;7.17;53.65;99937.69;4985133;28;19925;-76
2021/01/07 09:30:37;;;;;;;;;;;;;;;8.38;50.13;99947.31;4992123;28;19936;-77
2021/01/07 09:33:04;;;;;;;;;;;;;;;8.14;50.61;99942.81;4989942;28;19928;-77
2021/01/07 09:35:31;;;;;;;;;;;;;;;8.94;48.23;99944.94;4993493;28;19931;-77
2021/01/07 09:38:00;;;;;;;;;;;;;;;9.29;47.46;99947.66;5003387;28;19929;-76
2021/01/07 09:40:26;;;;;;;;;;;;;;;10.30;44.30;99939.84;4996492;28;20048;-78
2021/01/07 09:42:53;;;;;;;;;;;;;;;9.89;45.19;99936.38;4995150;28;19985;-78
2021/01/07 09:45:20;;;;;;;;;;;;;;;10.91;42.79;99937.84;4987804;28;19929;-77
2021/01/07 09:47:46;;;;;;;;;;;;;;;11.21;42.00;99938.56;4993373;28;19925;-78
2021/01/07 09:50:16;;;;;;;;;;;;;;;11.75;40.95;99932.94;4994521;28;19964;-78
2021/01/07 09:52:42;;;;;;;;;;;;;;;12.22;40.39;99932.53;5003063;28;19925;-79
2021/01/07 09:55:09;;;;;;;;;;;;;;;11.04;42.04;99933.41;5001651;28;19968;-79
2021/01/07 09:57:37;;;;;;;;;;;;;;;11.09;43.63;99926.41;4990719;28;19932;-78
2021/01/07 10:00:05;;;;;;;;;;;;;;;12.45;40.29;99929.66;5006378;28;19921;-80
2021/01/07 10:02:33;;;;;;;;;;;;;;;12.38;39.67;99930.59;4985961;28;19921;-79
2021/01/07 10:05:02;;;;;;;;;;;;;;;12.81;39.32;99932.72;4991780;28;19925;-79
2021/01/07 10:07:29;;;;;;;;;;;;;;;11.05;43.18;99931.69;5000830;28;19925;-78
2021/01/07 10:09:56;;;;;;;;;;;;;;;10.69;44.17;99927.50;5019948;28;19933;-77
2021/01/07 10:12:23;;;;;;;;;;;;;;;12.20;41.19;99930.78;4987560;28;20001;-81
2021/01/07 10:14:50;;;;;;;;;;;;;;;12.90;38.74;99930.00;5023716;28;19936;-78
2021/01/07 10:17:18;;;;;;;;;;;;;;;12.70;38.43;99937.25;4997167;28;19960;-76
2021/01/07 10:19:45;;;;;;;;;;;;;;;12.99;39.37;99919.38;5019063;28;19921;-75
2021/01/07 10:22:14;;;;;;;;;;;;;;;13.63;37.88;99929.81;5002766;28;19979;-76
2021/01/07 10:24:43;;;;;;;;;;;;;;;14.49;36.68;99921.28;5013204;28;20020;-75
2021/01/07 10:27:11;;;;;;;;;;;;;;;13.64;38.86;99934.19;4999135;28;20349;-76
2021/01/07 10:29:38;;;;;;;;;;;;;;;13.70;37.37;99926.22;5028969;28;19921;-76
2021/01/07 10:32:05;;;;;;;;;;;;;;;13.93;38.36;99918.81;5005532;28;20399;-77
2021/01/07 10:34:37;;;;;;;;;;;;;;;13.75;39.38;99915.63;5014690;28;19921;-79
2021/01/07 10:37:04;;;;;;;;;;;;;;;14.62;36.24;99904.41;5012210;28;20016;-77
2021/01/07 10:39:35;;;;;;;;;;;;;;;15.13;35.80;99905.03;5017063;28;19947;-79
2021/01/07 10:42:04;;;;;;;;;;;;;;;16.39;33.86;99905.41;5011574;28;20280;-78
2021/01/07 10:44:33;;;;;;;;;;;;;;;14.68;37.77;99896.38;5002142;28;19929;-78
2021/01/07 10:47:00;;;;;;;;;;;;;;;13.84;39.35;99899.72;5003355;28;19945;-78
2021/01/07 10:49:28;;;;;;;;;;;;;;;13.90;39.28;99891.72;5010881;28;19952;-78
2021/01/07 10:52:01;;;;;;;;;;;;;;;13.91;37.83;99890.81;5002666;28;19924;-75
2021/01/07 10:54:45;;;;;;;;;;;;;;;13.85;37.96;99881.31;5000894;28;19925;-79
2021/01/07 10:57:27;;;;;;;;;;;;;;;14.48;37.97;99880.16;5011352;28;20872;-76
2021/01/07 11:00:03;;;;;;;;;;;;;;;14.26;38.84;99880.53;5003539;28;19922;-78
2021/01/07 11:02:49;;;;;;;;;;;;;;;14.14;39.15;99883.41;4998160;28;19921;-77
2021/01/07 11:05:22;;;;;;;;;;;;;;;15.09;36.09;99877.94;5002134;28;19925;-76
2021/01/07 11:07:58;;;;;;;;;;;;;;;14.60;36.58;99864.97;5004447;28;19932;-76
2021/01/07 11:10:26;;;;;;;;;;;;;;;15.02;37.19;99865.81;5009437;28;19929;-77
2021/01/07 11:12:58;;;;;;;;;;;;;;;16.20;34.66;99866.41;4990920;28;19922;-76
2021/01/07 11:15:28;;;;;;;;;;;;;;;15.58;34.72;99859.25;4976890;28;20004;-78
2021/01/07 11:17:58;;;;;;;;;;;;;;;15.51;35.46;99870.81;5008653;28;19928;-76
2021/01/07 11:20:26;;;;;;;;;;;;;;;13.89;38.24;99854.09;4983328;28;20445;-76
2021/01/07 11:22:53;;;;;;;;;;;;;;;14.58;38.09;99856.25;4998244;28;19929;-77
2021/01/07 11:25:20;;;;;;;;;;;;;;;15.04;35.78;99861.38;4962191;28;19929;-77
2021/01/07 11:27:49;;;;;;;;;;;;;;;14.35;37.58;99851.44;5017433;28;19925;-77
2021/01/07 11:30:16;;;;;;;;;;;;;;;13.25;39.23;99846.44;4982141;28;19976;-77
2021/01/07 11:32:44;;;;;;;;;;;;;;;14.05;38.88;99852.06;5017514;28;20316;-77
2021/01/07 11:35:12;;;;;;;;;;;;;;;14.93;36.42;99844.97;4995534;28;19944;-79
2021/01/07 11:37:53;;;;;;;;;;;;;;;14.48;37.69;99838.97;4980003;28;19925;-77
2021/01/07 11:40:24;;;;;;;;;;;;;;;15.65;34.70;99839.72;5009708;28;19929;-75
2021/01/07 11:43:06;;;;;;;;;;;;;;;13.84;40.06;99834.94;5018488;28;20008;-74
2021/01/07 11:45:33;;;;;;;;;;;;;;;15.29;36.32;99832.72;4981388;28;20024;-74
2021/01/07 11:48:18;;;;;;;;;;;;;;;15.24;35.75;99829.34;4994918;28;19928;-76
2021/01/07 11:50:45;;;;;;;;;;;;;;;14.12;38.63;99827.38;5016270;28;19929;-75
2021/01/07 11:53:12;;;;;;;;;;;;;;;14.10;37.24;99818.66;5006078;28;20372;-74
2021/01/07 11:55:41;;;;;;;;;;;;;;;13.70;38.82;99815.06;5015021;28;20372;-74
2021/01/07 11:58:18;;;;;;;;;;;;;;;14.32;37.53;99819.09;4998144;28;19925;-78
2021/01/07 12:00:46;;;;;;;;;;;;;;;14.16;37.37;99818.53;5011880;28;20358;-77
2021/01/07 12:03:16;;;;;;;;;;;;;;;14.59;35.52;99817.69;5007555;28;20008;-77
2021/01/07 12:05:44;;;;;;;;;;;;;;;14.28;35.93;99817.44;5005239;28;19929;-77
2021/01/07 12:08:16;;;;;;;;;;;;;;;12.97;39.72;99816.25;5022156;28;19956;-76
2021/01/07 12:10:43;;;;;;;;;;;;;;;13.14;40.38;99808.16;5011337;28;19944;-76
2021/01/07 12:13:16;;;;;;;;;;;;;;;14.20;37.44;99801.81;4999123;28;19944;-78
2021/01/07 12:15:47;;;;;;;;;;;;;;;14.86;36.74;99797.81;5015023;28;19925;-79
2021/01/07 12:18:13;;;;;;;;;;;;;;;14.72;37.07;99788.44;5017870;28;19921;-76
2021/01/07 12:20:40;;;;;;;;;;;;;;;13.54;37.77;99785.59;5015928;28;19988;-75
2021/01/07 12:23:09;;;;;;;;;;;;;;;13.01;39.28;99784.72;4997599;28;20277;-75
2021/01/07 12:25:38;;;;;;;;;;;;;;;11.16;43.29;99792.16;5006720;28;20032;-75
2021/01/07 12:28:05;;;;;;;;;;;;;;;9.39;47.52;99783.41;5012695;28;19929;-74
2021/01/07 12:30:36;;;;;;;;;;;;;;;9.61;48.16;99779.00;5003434;28;19929;-75
2021/01/07 12:33:03;;;;;;;;;;;;;;;8.41;51.93;99786.81;5012282;28;19924;-75
2021/01/07 12:38:32;;;;;;;;;;;;;;;8.31;53.54;99778.09;4923148;28;19987;-79
2021/01/07 12:41:03;;;;;;;;;;;;;;;8.06;53.25;99780.56;4927367;28;19969;-76
2021/01/07 12:43:33;;;;;;;;;;;;;;;7.51;54.91;99780.31;4942383;28;19937;-77
2021/01/07 12:46:15;;;;;;;;;;;;;;;7.50;55.11;99786.34;4948740;28;19933;-78
2021/01/07 12:48:45;;;;;;;;;;;;;;;7.59;54.90;99783.81;4949133;28;19958;-78
2021/01/07 12:51:14;;;;;;;;;;;;;;;7.63;54.73;99784.69;4935321;28;20305;-77
2021/01/07 12:53:41;;;;;;;;;;;;;;;7.18;56.75;99785.28;4941506;28;19930;-78
2021/01/07 12:56:13;;;;;;;;;;;;;;;7.36;55.91;99782.78;4953756;28;19922;-76
2021/01/07 12:58:54;;;;;;;;;;;;;;;7.22;55.83;99781.84;4871405;28;20294;-80
2021/01/07 13:01:39;;;;;;;;;;;;;;;6.88;56.98;99776.38;4874760;28;20266;-79
2021/01/07 13:04:24;;;;;;;;;;;;;;;6.58;57.57;99776.06;4937737;28;20368;-77